createdAt,value
2018-10-04T00:02:07.859Z,7.96
2018-10-04T00:04:37.489Z,8.02
2018-10-04T00:07:07.128Z,8.07
2018-10-04T00:09:36.743Z,8.12
2018-10-04T00:12:06.455Z,8.16
2018-10-04T00:14:36.276Z,8.14
2018-10-04T00:17:05.879Z,8.14
2018-10-04T00:19:35.652Z,8.13
2018-10-04T00:22:05.289Z,8.12
2018-10-04T00:24:35.040Z,8.12
2018-10-04T00:27:04.667Z,8.11
2018-10-04T00:29:34.350Z,8.10
2018-10-04T00:32:04.008Z,8.09
2018-10-04T00:34:33.707Z,8.09
2018-10-04T00:37:03.346Z,8.09
2018-10-04T00:39:32.967Z,8.09
2018-10-04T00:42:02.590Z,8.08
2018-10-04T00:44:32.287Z,8.10
2018-10-04T00:47:01.896Z,8.11
2018-10-04T00:49:31.516Z,8.09
2018-10-04T00:52:01.211Z,8.08
2018-10-04T00:54:30.960Z,8.07
2018-10-04T00:57:00.621Z,8.09
2018-10-04T00:59:30.255Z,8.16
2018-10-04T01:01:59.888Z,8.18
2018-10-04T01:04:29.479Z,8.20
2018-10-04T01:06:59.094Z,8.23
2018-10-04T01:09:28.692Z,8.22
2018-10-04T01:11:58.339Z,8.20
2018-10-04T01:14:27.956Z,8.17
2018-10-04T01:16:57.604Z,8.12
2018-10-04T01:19:27.298Z,8.10
2018-10-04T01:21:56.929Z,8.05
2018-10-04T01:24:26.712Z,8.05
2018-10-04T01:26:56.449Z,8.03
2018-10-04T01:29:26.087Z,7.99
2018-10-04T01:31:55.717Z,7.97
2018-10-04T01:34:25.376Z,7.96
2018-10-04T01:36:55.001Z,7.94
2018-10-04T01:39:24.642Z,7.95
2018-10-04T01:41:54.263Z,7.95
2018-10-04T01:44:23.859Z,7.96
2018-10-04T01:46:53.488Z,7.99
2018-10-04T01:49:23.114Z,8.03
2018-10-04T01:51:52.691Z,8.07
2018-10-04T01:54:22.352Z,8.11
2018-10-04T01:56:51.957Z,8.13
2018-10-04T01:59:21.595Z,8.13
2018-10-04T02:01:51.203Z,8.16
2018-10-04T02:04:20.875Z,8.17
2018-10-04T02:06:50.502Z,8.14
2018-10-04T02:09:20.106Z,8.13
2018-10-04T02:11:54.452Z,8.10
2018-10-04T02:14:23.998Z,8.06
2018-10-04T02:16:53.659Z,8.04
2018-10-04T02:19:23.248Z,8.03
2018-10-04T02:21:52.899Z,8.00
2018-10-04T02:24:22.523Z,7.96
2018-10-04T02:26:52.207Z,7.95
2018-10-04T02:29:21.843Z,7.92
2018-10-04T02:31:51.479Z,7.91
2018-10-04T02:34:21.049Z,7.89
2018-10-04T02:36:50.653Z,7.86
2018-10-04T02:39:20.403Z,7.85
2018-10-04T02:41:50.051Z,7.82
2018-10-04T02:44:19.691Z,7.78
2018-10-04T02:46:49.379Z,7.75
2018-10-04T02:49:19.015Z,7.73
2018-10-04T02:51:48.689Z,7.73
2018-10-04T02:54:23.555Z,7.71
2018-10-04T02:56:53.846Z,7.68
2018-10-04T02:59:30.129Z,7.66
2018-10-04T03:01:59.746Z,7.66
2018-10-04T03:04:29.319Z,7.65
2018-10-04T03:06:58.907Z,7.62
2018-10-04T03:09:28.477Z,7.64
2018-10-04T03:11:58.112Z,7.66
2018-10-04T03:14:27.742Z,7.66
2018-10-04T03:16:57.342Z,7.67
2018-10-04T03:19:26.955Z,7.66
2018-10-04T03:21:56.599Z,7.67
2018-10-04T03:24:26.199Z,7.67
2018-10-04T03:26:55.796Z,7.70
2018-10-04T03:29:25.411Z,7.73
2018-10-04T03:31:54.999Z,7.77
2018-10-04T03:34:24.627Z,7.81
2018-10-04T03:36:54.242Z,7.79
2018-10-04T03:39:23.810Z,7.74
2018-10-04T03:41:53.421Z,7.68
2018-10-04T03:44:23.553Z,7.64
2018-10-04T03:46:53.246Z,7.62
2018-10-04T03:49:23.299Z,7.60
2018-10-04T03:51:52.906Z,7.57
2018-10-04T03:54:22.555Z,7.54
2018-10-04T03:56:52.283Z,7.53
2018-10-04T03:59:21.987Z,7.51
2018-10-04T04:01:51.650Z,7.50
2018-10-04T04:04:21.318Z,7.47
2018-10-04T04:06:50.951Z,7.46
2018-10-04T04:09:20.585Z,7.42
2018-10-04T04:11:50.414Z,7.41
2018-10-04T04:14:20.067Z,7.42
2018-10-04T04:16:49.687Z,7.40
2018-10-04T04:19:19.326Z,7.37
2018-10-04T04:21:49.075Z,7.37
2018-10-04T04:24:18.702Z,7.37
2018-10-04T04:26:48.365Z,7.36
2018-10-04T04:29:18.069Z,7.37
2018-10-04T04:31:47.744Z,7.35
2018-10-04T04:34:17.411Z,7.35
2018-10-04T04:36:47.019Z,7.34
2018-10-04T04:39:16.625Z,7.33
2018-10-04T04:41:46.275Z,7.30
2018-10-04T04:44:15.867Z,7.32
2018-10-04T04:46:45.667Z,7.33
2018-10-04T04:49:15.237Z,7.35
2018-10-04T04:51:45.257Z,7.37
2018-10-04T04:55:28.164Z,7.38
2018-10-04T04:57:58.536Z,7.44
2018-10-04T05:00:29.687Z,7.49
2018-10-04T05:02:59.575Z,7.54
2018-10-04T05:05:29.568Z,7.68
2018-10-04T05:08:00.243Z,7.85
2018-10-04T05:10:30.475Z,7.99
2018-10-04T05:13:01.273Z,8.11
2018-10-04T05:15:30.952Z,8.24
2018-10-04T05:18:00.762Z,8.33
2018-10-04T05:20:30.376Z,8.43
2018-10-04T05:22:59.987Z,8.54
2018-10-04T05:25:29.602Z,8.60
2018-10-04T05:27:59.446Z,8.66
2018-10-04T05:30:29.022Z,8.72
2018-10-04T05:32:58.717Z,8.75
2018-10-04T05:35:28.364Z,8.83
2018-10-04T05:37:57.970Z,8.92
2018-10-04T05:40:27.610Z,9.02
2018-10-04T05:42:57.275Z,9.14
2018-10-04T05:45:26.971Z,9.38
2018-10-04T05:47:56.618Z,9.70
2018-10-04T05:50:26.295Z,9.91
2018-10-04T05:52:56.045Z,9.97
2018-10-04T05:55:25.628Z,9.98
2018-10-04T05:57:55.243Z,9.96
2018-10-04T06:00:36.835Z,9.92
2018-10-04T06:03:06.682Z,9.88
2018-10-04T06:05:36.444Z,9.89
2018-10-04T06:08:06.386Z,9.89
2018-10-04T06:10:36.496Z,9.90
2018-10-04T06:13:06.163Z,9.94
2018-10-04T06:15:35.878Z,9.98
2018-10-04T06:18:05.493Z,10.03
2018-10-04T06:20:37.253Z,10.07
2018-10-04T06:23:07.133Z,10.13
2018-10-04T06:25:36.754Z,10.22
2018-10-04T06:28:06.551Z,10.32
2018-10-04T06:30:36.186Z,10.47
2018-10-04T06:33:05.848Z,10.75
2018-10-04T06:35:35.506Z,11.13
2018-10-04T06:38:05.167Z,11.51
2018-10-04T06:40:34.799Z,11.82
2018-10-04T06:43:04.417Z,12.09
2018-10-04T06:45:34.090Z,12.42
2018-10-04T06:48:03.719Z,12.94
2018-10-04T06:50:33.367Z,13.39
2018-10-04T06:53:02.971Z,13.79
2018-10-04T06:55:32.598Z,14.20
2018-10-04T06:58:02.327Z,14.50
2018-10-04T07:00:32.137Z,14.67
2018-10-04T07:03:01.825Z,14.76
2018-10-04T07:05:31.410Z,14.83
2018-10-04T07:08:01.091Z,14.81
2018-10-04T07:10:30.705Z,14.72
2018-10-04T07:13:00.339Z,14.61
2018-10-04T07:15:29.956Z,14.63
2018-10-04T07:17:59.548Z,14.61
2018-10-04T07:20:29.210Z,14.60
2018-10-04T07:22:58.805Z,14.49
2018-10-04T07:25:28.431Z,14.41
2018-10-04T07:27:58.116Z,14.39
2018-10-04T07:30:27.723Z,14.52
2018-10-04T07:32:57.329Z,14.85
2018-10-04T07:35:26.929Z,15.23
2018-10-04T07:37:56.576Z,15.66
2018-10-04T07:40:26.194Z,16.42
2018-10-04T07:42:55.808Z,17.25
2018-10-04T07:45:25.382Z,17.95
2018-10-04T07:47:55.007Z,18.63
2018-10-04T07:50:24.693Z,19.29
2018-10-04T07:52:54.304Z,19.78
2018-10-04T07:55:23.911Z,19.85
2018-10-04T07:57:53.527Z,19.74
2018-10-04T08:00:23.537Z,19.89
2018-10-04T08:02:53.144Z,20.59
2018-10-04T08:05:22.775Z,20.73
2018-10-04T08:07:52.406Z,20.92
2018-10-04T08:10:22.153Z,20.91
2018-10-04T08:12:51.807Z,21.04
2018-10-04T08:15:21.491Z,21.09
2018-10-04T08:17:51.110Z,21.41
2018-10-04T08:20:20.799Z,21.98
2018-10-04T08:22:50.419Z,22.38
2018-10-04T08:25:20.051Z,22.16
2018-10-04T08:27:49.698Z,21.83
2018-10-04T08:30:19.423Z,21.62
2018-10-04T08:32:49.019Z,21.52
2018-10-04T08:35:18.735Z,21.33
2018-10-04T08:37:48.351Z,20.91
2018-10-04T08:40:17.955Z,20.35
2018-10-04T08:42:47.616Z,19.89
2018-10-04T08:45:17.373Z,19.46
2018-10-04T08:47:47.052Z,19.02
2018-10-04T08:50:16.650Z,18.58
2018-10-04T08:52:52.239Z,18.35
2018-10-04T08:55:26.944Z,18.62
2018-10-04T08:57:56.887Z,18.89
2018-10-04T09:00:28.370Z,19.13
2018-10-04T09:03:00.627Z,19.49
2018-10-04T09:05:30.324Z,19.58
2018-10-04T09:07:59.935Z,19.38
2018-10-04T09:10:29.627Z,19.03
2018-10-04T09:12:59.277Z,18.79
2018-10-04T09:15:28.906Z,18.76
2018-10-04T09:17:58.549Z,18.72
2018-10-04T09:20:28.247Z,18.59
2018-10-04T09:22:57.885Z,18.37
2018-10-04T09:25:27.541Z,18.14
2018-10-04T09:27:57.151Z,17.94
2018-10-04T09:30:31.824Z,17.83
2018-10-04T09:33:01.496Z,17.62
2018-10-04T09:35:31.389Z,17.45
2018-10-04T09:38:01.083Z,17.26
2018-10-04T09:40:30.727Z,17.08
2018-10-04T09:43:00.391Z,17.02
2018-10-04T09:45:30.026Z,17.09
2018-10-04T09:47:59.629Z,17.19
2018-10-04T09:50:35.213Z,17.29
2018-10-04T09:53:05.080Z,17.30
2018-10-04T09:55:39.990Z,17.18
2018-10-04T09:58:09.700Z,17.03
2018-10-04T10:00:44.501Z,16.89
2018-10-04T10:03:14.191Z,16.72
2018-10-04T10:05:43.819Z,16.60
2018-10-04T10:08:13.520Z,16.48
2018-10-04T10:10:43.207Z,16.31
2018-10-04T10:13:12.831Z,16.23
2018-10-04T10:15:42.467Z,16.19
2018-10-04T10:18:12.303Z,16.20
2018-10-04T10:20:41.911Z,16.19
2018-10-04T10:23:11.537Z,16.17
2018-10-04T10:25:41.199Z,16.20
2018-10-04T10:28:10.814Z,16.24
2018-10-04T10:30:40.447Z,16.28
2018-10-04T10:33:10.066Z,16.21
2018-10-04T10:35:39.852Z,16.19
2018-10-04T10:38:09.742Z,16.11
2018-10-04T10:40:39.355Z,16.13
2018-10-04T10:43:09.067Z,16.17
2018-10-04T10:45:38.715Z,16.24
2018-10-04T10:48:08.396Z,16.39
2018-10-04T10:50:38.331Z,16.45
2018-10-04T10:53:08.063Z,16.46
2018-10-04T10:55:37.900Z,16.41
2018-10-04T10:58:07.530Z,16.27
2018-10-04T11:00:37.219Z,16.06
2018-10-04T11:03:06.930Z,15.85
2018-10-04T11:05:37.257Z,15.61
2018-10-04T11:08:07.797Z,15.40
2018-10-04T11:10:38.467Z,15.27
2018-10-04T11:13:07.145Z,15.23
2018-10-04T11:15:36.879Z,15.24
2018-10-04T11:18:06.514Z,15.16
2018-10-04T11:20:36.112Z,15.07
2018-10-04T11:23:05.939Z,15.02
2018-10-04T11:25:35.599Z,14.99
2018-10-04T11:28:05.249Z,14.95
2018-10-04T11:30:34.917Z,14.95
2018-10-04T11:33:04.645Z,15.00
2018-10-04T11:35:34.274Z,15.05
2018-10-04T11:38:03.974Z,15.10
2018-10-04T11:40:33.615Z,15.20
2018-10-04T11:43:03.302Z,15.32
2018-10-04T11:45:35.486Z,15.53
2018-10-04T11:48:05.151Z,15.84
2018-10-04T11:50:34.779Z,16.20
2018-10-04T11:53:04.712Z,16.53
2018-10-04T11:55:34.350Z,16.88
2018-10-04T11:58:04.020Z,17.28
2018-10-04T12:00:33.625Z,17.70
2018-10-04T12:03:03.272Z,17.98
2018-10-04T12:05:32.980Z,18.13
2018-10-04T12:08:02.572Z,18.18
2018-10-04T12:10:32.163Z,18.24
2018-10-04T12:13:01.875Z,18.20
2018-10-04T12:15:31.411Z,18.20
2018-10-04T12:18:00.995Z,18.27
2018-10-04T12:20:30.689Z,18.30
2018-10-04T12:23:00.306Z,18.32
2018-10-04T12:25:29.886Z,18.41
2018-10-04T12:27:59.482Z,18.48
2018-10-04T12:30:29.161Z,18.49
2018-10-04T12:32:58.766Z,18.41
2018-10-04T12:35:28.380Z,18.29
2018-10-04T12:37:58.120Z,18.11
2018-10-04T12:40:27.708Z,17.95
2018-10-04T12:42:57.327Z,17.87
2018-10-04T12:45:27.225Z,17.84
2018-10-04T12:47:56.821Z,17.78
2018-10-04T12:50:26.507Z,17.79
2018-10-04T12:52:56.118Z,17.72
2018-10-04T12:55:25.783Z,17.56
2018-10-04T12:57:55.460Z,17.39
2018-10-04T13:00:25.300Z,17.25
2018-10-04T13:02:54.932Z,17.11
2018-10-04T13:05:24.543Z,17.10
2018-10-04T13:07:54.187Z,17.09
2018-10-04T13:10:23.822Z,17.05
2018-10-04T13:12:53.430Z,17.02
2018-10-04T13:15:23.087Z,17.02
2018-10-04T13:17:52.658Z,17.00
2018-10-04T13:20:22.339Z,16.98
2018-10-04T13:22:52.080Z,17.02
2018-10-04T13:25:21.699Z,17.10
2018-10-04T13:27:51.428Z,17.15
2018-10-04T13:30:21.075Z,17.19
2018-10-04T13:32:50.709Z,17.23
2018-10-04T13:35:20.342Z,17.25
2018-10-04T13:37:49.959Z,17.30
2018-10-04T13:40:19.570Z,17.37
2018-10-04T13:42:49.209Z,17.38
2018-10-04T13:45:18.913Z,17.39
2018-10-04T13:47:48.641Z,17.38
2018-10-04T13:50:18.273Z,17.35
2018-10-04T13:52:47.894Z,17.34
2018-10-04T13:55:17.496Z,17.33
2018-10-04T13:57:50.013Z,17.38
2018-10-04T14:00:19.632Z,17.44
2018-10-04T14:02:49.200Z,17.46
2018-10-04T14:05:18.787Z,17.52
2018-10-04T14:07:48.416Z,17.51
2018-10-04T14:10:18.014Z,17.45
2018-10-04T14:12:47.643Z,17.40
2018-10-04T14:15:17.334Z,17.42
2018-10-04T14:17:46.968Z,17.38
2018-10-04T14:20:16.680Z,17.31
2018-10-04T14:22:46.567Z,17.27
2018-10-04T14:25:16.339Z,17.27
2018-10-04T14:27:45.975Z,17.23
2018-10-04T14:30:15.627Z,17.25
2018-10-04T14:32:47.176Z,17.27
2018-10-04T14:35:16.820Z,17.31
2018-10-04T14:37:46.483Z,17.29
2018-10-04T14:40:16.131Z,17.29
2018-10-04T14:42:45.784Z,17.25
2018-10-04T14:45:15.450Z,17.25
2018-10-04T14:47:45.082Z,17.19
2018-10-04T14:50:14.747Z,17.09
2018-10-04T14:52:44.406Z,16.97
2018-10-04T14:55:14.093Z,16.92
2018-10-04T14:57:43.882Z,16.87
2018-10-04T15:00:13.507Z,16.80
2018-10-04T15:02:43.150Z,16.77
2018-10-04T15:05:12.806Z,16.71
2018-10-04T15:07:42.399Z,16.65
2018-10-04T15:10:12.084Z,16.56
2018-10-04T15:12:41.723Z,16.48
2018-10-04T15:15:11.355Z,16.40
2018-10-04T15:17:40.959Z,16.33
2018-10-04T15:20:10.422Z,16.24
2018-10-04T15:22:40.024Z,16.12
2018-10-04T15:25:09.636Z,16.00
2018-10-04T15:27:39.315Z,15.91
2018-10-04T15:30:09.901Z,15.79
2018-10-04T15:32:39.585Z,15.70
2018-10-04T15:35:09.288Z,15.62
2018-10-04T15:37:39.035Z,15.58
2018-10-04T15:40:08.712Z,15.58
2018-10-04T15:42:38.363Z,15.59
2018-10-04T15:45:07.976Z,15.57
2018-10-04T15:47:37.613Z,15.56
2018-10-04T15:50:07.459Z,15.53
2018-10-04T15:52:37.082Z,15.42
2018-10-04T15:55:06.739Z,15.25
2018-10-04T15:57:36.698Z,15.04
2018-10-04T16:00:06.441Z,14.85
2018-10-04T16:02:36.150Z,14.68
2018-10-04T16:05:06.143Z,14.52
2018-10-04T16:07:35.791Z,14.38
2018-10-04T16:10:05.482Z,14.25
2018-10-04T16:12:35.328Z,14.15
2018-10-04T16:15:07.928Z,14.05
2018-10-04T16:17:37.670Z,14.00
2018-10-04T16:20:07.366Z,13.94
2018-10-04T16:22:37.017Z,13.88
2018-10-04T16:25:06.685Z,13.82
2018-10-04T16:27:41.273Z,13.76
2018-10-04T16:30:10.991Z,13.67
2018-10-04T16:32:40.582Z,13.62
2018-10-04T16:35:10.267Z,13.56
2018-10-04T16:37:40.339Z,13.50
2018-10-04T16:40:10.283Z,13.40
2018-10-04T16:42:39.956Z,13.31
2018-10-04T16:45:10.116Z,13.24
2018-10-04T16:47:40.186Z,13.14
2018-10-04T16:50:10.519Z,13.03
2018-10-04T16:52:40.167Z,12.94
2018-10-04T16:55:09.910Z,12.85
2018-10-04T16:57:39.571Z,12.78
2018-10-04T17:00:09.343Z,12.70
2018-10-04T17:02:39.020Z,12.64
2018-10-04T17:05:08.891Z,12.61
2018-10-04T17:07:38.562Z,12.58
2018-10-04T17:10:08.228Z,12.59
2018-10-04T17:12:37.978Z,12.60
2018-10-04T17:15:08.035Z,12.60
2018-10-04T17:17:37.660Z,12.62
2018-10-04T17:20:08.423Z,12.64
2018-10-04T17:22:38.123Z,12.65
2018-10-04T17:25:08.001Z,12.65
2018-10-04T17:27:37.671Z,12.62
2018-10-04T17:30:07.767Z,12.59
2018-10-04T17:32:37.711Z,12.58
2018-10-04T17:35:07.375Z,12.60
2018-10-04T17:37:37.155Z,12.62
2018-10-04T17:40:08.365Z,12.65
2018-10-04T17:42:37.979Z,12.69
2018-10-04T17:45:08.148Z,12.72
2018-10-04T17:47:37.946Z,12.76
2018-10-04T17:50:07.808Z,12.78
2018-10-04T17:52:37.480Z,12.79
2018-10-04T17:55:07.151Z,12.80
2018-10-04T17:57:40.832Z,12.79
2018-10-04T18:00:13.205Z,12.79
2018-10-04T18:02:43.076Z,12.79
2018-10-04T18:05:12.732Z,12.82
2018-10-04T18:07:42.419Z,12.85
2018-10-04T18:10:12.090Z,12.87
2018-10-04T18:12:41.818Z,12.91
2018-10-04T18:15:11.528Z,12.94
2018-10-04T18:17:41.283Z,12.97
2018-10-04T18:20:11.007Z,12.98
2018-10-04T18:22:40.699Z,13.01
2018-10-04T18:25:10.395Z,13.06
2018-10-04T18:27:40.076Z,13.09
2018-10-04T18:30:09.771Z,13.11
2018-10-04T18:32:39.644Z,13.14
2018-10-04T18:35:09.268Z,13.16
2018-10-04T18:37:38.939Z,13.18
2018-10-04T18:40:08.577Z,13.21
2018-10-04T18:42:38.233Z,13.22
2018-10-04T18:45:07.907Z,13.24
2018-10-04T18:47:37.757Z,13.24
2018-10-04T18:50:07.717Z,13.26
2018-10-04T18:52:37.510Z,13.27
2018-10-04T18:55:07.124Z,13.26
2018-10-04T18:57:36.796Z,13.28
2018-10-04T19:00:06.571Z,13.29
2018-10-04T19:02:36.445Z,13.30
2018-10-04T19:05:06.129Z,13.28
2018-10-04T19:07:35.784Z,13.30
2018-10-04T19:10:05.616Z,13.32
2018-10-04T19:12:35.344Z,13.31
2018-10-04T19:15:05.037Z,13.32
2018-10-04T19:17:34.674Z,13.34
2018-10-04T19:20:04.352Z,13.35
2018-10-04T19:22:33.991Z,13.36
2018-10-04T19:25:03.911Z,13.37
2018-10-04T19:27:33.535Z,13.38
2018-10-04T19:30:03.192Z,13.37
2018-10-04T19:32:33.022Z,13.38
2018-10-04T19:35:02.728Z,13.38
2018-10-04T19:37:32.402Z,13.37
2018-10-04T19:40:02.077Z,13.36
2018-10-04T19:42:31.687Z,13.37
2018-10-04T19:45:01.332Z,13.39
2018-10-04T19:47:31.015Z,13.39
2018-10-04T19:50:00.673Z,13.39
2018-10-04T19:52:30.465Z,13.41
2018-10-04T19:55:00.076Z,13.41
2018-10-04T19:57:29.744Z,13.44
2018-10-04T19:59:59.398Z,13.46
2018-10-04T20:02:29.309Z,13.46
2018-10-04T20:04:58.928Z,13.46
2018-10-04T20:07:28.556Z,13.49
2018-10-04T20:09:58.228Z,13.49
2018-10-04T20:12:27.876Z,13.49
2018-10-04T20:14:57.615Z,13.49
2018-10-04T20:17:27.289Z,13.48
2018-10-04T20:19:56.896Z,13.49
2018-10-04T20:22:26.516Z,13.49
2018-10-04T20:24:56.188Z,13.48
2018-10-04T20:27:25.823Z,13.48
2018-10-04T20:29:55.442Z,13.47
2018-10-04T20:32:25.114Z,13.46
2018-10-04T20:34:54.833Z,13.46
2018-10-04T20:37:24.426Z,13.47
2018-10-04T20:39:54.287Z,13.47
2018-10-04T20:42:23.898Z,13.45
2018-10-04T20:44:53.547Z,13.45
2018-10-04T20:47:23.213Z,13.44
2018-10-04T20:49:52.821Z,13.44
2018-10-04T20:52:22.457Z,13.41
2018-10-04T20:54:52.334Z,13.42
2018-10-04T20:57:21.970Z,13.40
2018-10-04T20:59:51.631Z,13.40
2018-10-04T21:02:21.288Z,13.38
2018-10-04T21:04:51.049Z,13.37
2018-10-04T21:07:20.883Z,13.36
2018-10-04T21:09:50.486Z,13.35
2018-10-04T21:12:20.105Z,13.34
2018-10-04T21:14:49.713Z,13.33
2018-10-04T21:17:31.434Z,13.32
2018-10-04T21:20:01.055Z,13.31
2018-10-04T21:22:30.795Z,13.31
2018-10-04T21:25:00.418Z,13.31
2018-10-04T21:27:30.067Z,13.30
2018-10-04T21:29:59.740Z,13.31
2018-10-04T21:32:29.469Z,13.32
2018-10-04T21:34:59.583Z,13.33
2018-10-04T21:37:29.440Z,13.34
2018-10-04T21:39:59.542Z,13.34
2018-10-04T21:42:29.467Z,13.34
2018-10-04T21:44:59.269Z,13.36
2018-10-04T21:47:29.214Z,13.35
2018-10-04T21:49:59.021Z,13.37
2018-10-04T21:52:28.931Z,13.38
2018-10-04T21:54:58.746Z,13.37
2018-10-04T21:57:28.479Z,13.39
2018-10-04T21:59:58.101Z,13.39
2018-10-04T22:02:27.875Z,13.39
2018-10-04T22:04:57.636Z,13.38
2018-10-04T22:07:27.412Z,13.38
2018-10-04T22:09:57.175Z,13.38
2018-10-04T22:12:26.971Z,13.38
2018-10-04T22:14:56.591Z,13.38
2018-10-04T22:17:26.388Z,13.37
2018-10-04T22:19:56.025Z,13.35
2018-10-04T22:22:25.701Z,13.35
2018-10-04T22:24:55.331Z,13.34
2018-10-04T22:27:24.993Z,13.34
2018-10-04T22:29:54.603Z,13.34
2018-10-04T22:32:24.322Z,13.33
2018-10-04T22:34:53.978Z,13.33
2018-10-04T22:37:23.615Z,13.31
2018-10-04T22:39:53.220Z,13.31
2018-10-04T22:42:23.003Z,13.28
2018-10-04T22:44:52.646Z,13.25
2018-10-04T22:47:22.419Z,13.19
2018-10-04T22:49:55.018Z,13.11
2018-10-04T22:52:24.672Z,13.02
2018-10-04T22:54:54.287Z,12.91
2018-10-04T22:57:24.470Z,12.78
2018-10-04T22:59:54.447Z,12.62
2018-10-04T23:02:24.076Z,12.46
2018-10-04T23:04:53.792Z,12.31
2018-10-04T23:07:23.445Z,12.17
2018-10-04T23:09:53.052Z,12.05
2018-10-04T23:12:22.725Z,11.92
2018-10-04T23:14:52.432Z,11.80
2018-10-04T23:17:22.134Z,11.69
2018-10-04T23:19:51.751Z,11.59
2018-10-04T23:22:21.441Z,11.51
2018-10-04T23:24:51.075Z,11.43
2018-10-04T23:27:20.774Z,11.35
2018-10-04T23:29:50.434Z,11.28
2018-10-04T23:32:20.090Z,11.23
2018-10-04T23:34:49.705Z,11.16
2018-10-04T23:37:19.454Z,11.10
2018-10-04T23:39:49.093Z,11.07
2018-10-04T23:42:18.728Z,11.06
2018-10-04T23:44:48.545Z,11.06
2018-10-04T23:47:18.223Z,11.06
2018-10-04T23:49:47.855Z,11.05
2018-10-04T23:52:17.692Z,11.03
2018-10-04T23:54:47.295Z,11.02
2018-10-04T23:57:16.945Z,11.02
2018-10-04T23:59:46.593Z,11.02
